Pedro II, Brazil
Current Conditions -  °F | °C
As of 7:00 PM on Monday 24 Nov 2014 (Local Time) from SBTE Reporting Station
Clear Clear  
Wind Chill: 91°   Ceiling: Unl
Heat Index: 91°   Visibility: 6mi
Dew Point: 61°   Wind: 5mph
Humidity: 36%   Direction: 190°S
Pressure: 29.77"   Gusts: NA
Location:  4.42°S, 41.46°W
Report Text: SBTE 242200Z 19004KT CAVOK 33/16 Q1008
Loading
Personal Weather Stations






























Interactive Weather Map New forecast layout! Learn more

10-Day Weather Forecast

Advertisements
Track Severe Weather on mobile